<?xml version="1.0" encoding="UTF-8" standalone="no" ?>
<gpx xmlns="http://www.topografix.com/GPX/1/1" xmlns:xsi="http://www.w3.org/2001/XMLSchema-instance" xsi:schemaLocation="http://www.topografix.com/GPX/1/1 http://www.topografix.com/GPX/1/1/gpx.xsd" version="1.1" creator="VisuGPX - https://www.visugpx.com">
  <metadata>
    <name>Venise-Pamir J97 - Kirghiztan</name>
    <desc><![CDATA[Très beaux paysages, mais piste défoncée...                    ]]></desc>
  </metadata>
  <trk>
    <name><![CDATA[Venise-Pamir J97 - Kirghiztan_1]]></name>
    <trkseg>
      <trkpt lat="41.23149" lon="73.50266">
        <ele>992.2</ele>
        <time>2018-09-06T02:44:11.000Z</time>
      </trkpt>
      <trkpt lat="41.23064" lon="73.50121">
        <ele>1506.1</ele>
        <time>2018-09-06T02:45:41.000Z</time>
      </trkpt>
      <trkpt lat="41.23156" lon="73.50251">
        <ele>1626</ele>
        <time>2018-09-06T02:48:16.000Z</time>
      </trkpt>
      <trkpt lat="41.23219" lon="73.50413">
        <ele>1629.8</ele>
        <time>2018-09-06T02:49:24.000Z</time>
      </trkpt>
      <trkpt lat="41.2332" lon="73.50538">
        <ele>1632</ele>
        <time>2018-09-06T02:50:25.000Z</time>
      </trkpt>
      <trkpt lat="41.2343" lon="73.50643">
        <ele>1644.4</ele>
        <time>2018-09-06T02:51:42.000Z</time>
      </trkpt>
      <trkpt lat="41.23456" lon="73.50821">
        <ele>1714.8</ele>
        <time>2018-09-06T02:53:35.000Z</time>
      </trkpt>
      <trkpt lat="41.23581" lon="73.50888">
        <ele>1760.2</ele>
        <time>2018-09-06T02:55:13.000Z</time>
      </trkpt>
      <trkpt lat="41.23705" lon="73.50965">
        <ele>1778.6</ele>
        <time>2018-09-06T02:57:05.000Z</time>
      </trkpt>
      <trkpt lat="41.23817" lon="73.51069">
        <ele>1783.9</ele>
        <time>2018-09-06T02:58:20.000Z</time>
      </trkpt>
      <trkpt lat="41.23927" lon="73.51179">
        <ele>1778.5</ele>
        <time>2018-09-06T03:00:01.000Z</time>
      </trkpt>
      <trkpt lat="41.23993" lon="73.51338">
        <ele>1768.3</ele>
        <time>2018-09-06T03:01:10.000Z</time>
      </trkpt>
      <trkpt lat="41.24088" lon="73.5163">
        <ele>1754.2</ele>
        <time>2018-09-06T03:02:11.000Z</time>
      </trkpt>
      <trkpt lat="41.24298" lon="73.51948">
        <ele>1735.3</ele>
        <time>2018-09-06T03:03:12.000Z</time>
      </trkpt>
      <trkpt lat="41.24408" lon="73.52054">
        <ele>1734.4</ele>
        <time>2018-09-06T03:04:34.000Z</time>
      </trkpt>
      <trkpt lat="41.24428" lon="73.52235">
        <ele>1736.3</ele>
        <time>2018-09-06T03:05:35.000Z</time>
      </trkpt>
      <trkpt lat="41.24493" lon="73.52407">
        <ele>1738.7</ele>
        <time>2018-09-06T03:06:36.000Z</time>
      </trkpt>
      <trkpt lat="41.24566" lon="73.52673">
        <ele>1729.1</ele>
        <time>2018-09-06T03:07:37.000Z</time>
      </trkpt>
      <trkpt lat="41.24615" lon="73.52842">
        <ele>1746.6</ele>
        <time>2018-09-06T03:19:51.000Z</time>
      </trkpt>
      <trkpt lat="41.2481" lon="73.53037">
        <ele>1740.9</ele>
        <time>2018-09-06T03:20:52.000Z</time>
      </trkpt>
      <trkpt lat="41.24804" lon="73.53218">
        <ele>1744.4</ele>
        <time>2018-09-06T03:22:08.000Z</time>
      </trkpt>
      <trkpt lat="41.24809" lon="73.53399">
        <ele>1754.2</ele>
        <time>2018-09-06T03:23:14.000Z</time>
      </trkpt>
      <trkpt lat="41.24838" lon="73.53576">
        <ele>1765.2</ele>
        <time>2018-09-06T03:24:50.000Z</time>
      </trkpt>
      <trkpt lat="41.24773" lon="73.53734">
        <ele>1793.2</ele>
        <time>2018-09-06T03:26:51.000Z</time>
      </trkpt>
      <trkpt lat="41.24801" lon="73.53912">
        <ele>1786.7</ele>
        <time>2018-09-06T03:27:52.000Z</time>
      </trkpt>
      <trkpt lat="41.249" lon="73.5404">
        <ele>1790.8</ele>
        <time>2018-09-06T03:34:24.000Z</time>
      </trkpt>
      <trkpt lat="41.25112" lon="73.54233">
        <ele>1790.9</ele>
        <time>2018-09-06T03:35:25.000Z</time>
      </trkpt>
      <trkpt lat="41.25267" lon="73.54416">
        <ele>1790.3</ele>
        <time>2018-09-06T03:36:26.000Z</time>
      </trkpt>
      <trkpt lat="41.25321" lon="73.54582">
        <ele>1792.8</ele>
        <time>2018-09-06T03:37:34.000Z</time>
      </trkpt>
      <trkpt lat="41.25424" lon="73.547">
        <ele>1797.4</ele>
        <time>2018-09-06T03:38:46.000Z</time>
      </trkpt>
      <trkpt lat="41.25412" lon="73.54879">
        <ele>1811.4</ele>
        <time>2018-09-06T03:39:50.000Z</time>
      </trkpt>
      <trkpt lat="41.25437" lon="73.55058">
        <ele>1825.3</ele>
        <time>2018-09-06T03:41:06.000Z</time>
      </trkpt>
      <trkpt lat="41.25484" lon="73.55228">
        <ele>1831.8</ele>
        <time>2018-09-06T03:42:17.000Z</time>
      </trkpt>
      <trkpt lat="41.25617" lon="73.55521">
        <ele>1830.4</ele>
        <time>2018-09-06T03:43:18.000Z</time>
      </trkpt>
      <trkpt lat="41.25727" lon="73.55652">
        <ele>1830.3</ele>
        <time>2018-09-06T03:44:19.000Z</time>
      </trkpt>
      <trkpt lat="41.25847" lon="73.55872">
        <ele>1831.5</ele>
        <time>2018-09-06T03:45:20.000Z</time>
      </trkpt>
      <trkpt lat="41.25917" lon="73.56027">
        <ele>1832.1</ele>
        <time>2018-09-06T03:46:28.000Z</time>
      </trkpt>
      <trkpt lat="41.25978" lon="73.56187">
        <ele>1846</ele>
        <time>2018-09-06T04:04:27.000Z</time>
      </trkpt>
      <trkpt lat="41.25911" lon="73.56534">
        <ele>1853.3</ele>
        <time>2018-09-06T04:05:28.000Z</time>
      </trkpt>
      <trkpt lat="41.25877" lon="73.56793">
        <ele>1863.7</ele>
        <time>2018-09-06T04:06:29.000Z</time>
      </trkpt>
      <trkpt lat="41.25876" lon="73.56973">
        <ele>1872.8</ele>
        <time>2018-09-06T04:07:30.000Z</time>
      </trkpt>
      <trkpt lat="41.25888" lon="73.57202">
        <ele>1893.5</ele>
        <time>2018-09-06T04:08:31.000Z</time>
      </trkpt>
      <trkpt lat="41.25914" lon="73.5741">
        <ele>1909.9</ele>
        <time>2018-09-06T04:09:32.000Z</time>
      </trkpt>
      <trkpt lat="41.25961" lon="73.57585">
        <ele>1920.7</ele>
        <time>2018-09-06T04:10:33.000Z</time>
      </trkpt>
      <trkpt lat="41.2596" lon="73.57766">
        <ele>1928.1</ele>
        <time>2018-09-06T04:11:44.000Z</time>
      </trkpt>
      <trkpt lat="41.26019" lon="73.57981">
        <ele>1934.8</ele>
        <time>2018-09-06T04:12:45.000Z</time>
      </trkpt>
      <trkpt lat="41.26066" lon="73.58177">
        <ele>1947.5</ele>
        <time>2018-09-06T04:13:46.000Z</time>
      </trkpt>
      <trkpt lat="41.26167" lon="73.58391">
        <ele>1952.4</ele>
        <time>2018-09-06T04:14:47.000Z</time>
      </trkpt>
      <trkpt lat="41.26211" lon="73.58561">
        <ele>1956.3</ele>
        <time>2018-09-06T04:15:51.000Z</time>
      </trkpt>
      <trkpt lat="41.2627" lon="73.58744">
        <ele>1960.5</ele>
        <time>2018-09-06T04:16:52.000Z</time>
      </trkpt>
      <trkpt lat="41.26279" lon="73.58936">
        <ele>1963.7</ele>
        <time>2018-09-06T04:17:53.000Z</time>
      </trkpt>
      <trkpt lat="41.26226" lon="73.59102">
        <ele>1938.2</ele>
        <time>2018-09-06T04:21:17.000Z</time>
      </trkpt>
      <trkpt lat="41.26184" lon="73.59274">
        <ele>1944.3</ele>
        <time>2018-09-06T04:22:53.000Z</time>
      </trkpt>
      <trkpt lat="41.2612" lon="73.59432">
        <ele>1959.4</ele>
        <time>2018-09-06T04:24:42.000Z</time>
      </trkpt>
      <trkpt lat="41.26067" lon="73.59598">
        <ele>1979.9</ele>
        <time>2018-09-06T04:26:20.000Z</time>
      </trkpt>
      <trkpt lat="41.2598" lon="73.59736">
        <ele>2007.5</ele>
        <time>2018-09-06T04:28:04.000Z</time>
      </trkpt>
      <trkpt lat="41.25916" lon="73.59895">
        <ele>2041.4</ele>
        <time>2018-09-06T04:29:46.000Z</time>
      </trkpt>
      <trkpt lat="41.2603" lon="73.59791">
        <ele>2123.6</ele>
        <time>2018-09-06T04:33:10.000Z</time>
      </trkpt>
      <trkpt lat="41.26132" lon="73.59673">
        <ele>2149.3</ele>
        <time>2018-09-06T04:34:28.000Z</time>
      </trkpt>
      <trkpt lat="41.26215" lon="73.59531">
        <ele>2175.9</ele>
        <time>2018-09-06T04:35:54.000Z</time>
      </trkpt>
      <trkpt lat="41.26177" lon="73.59703">
        <ele>2214.1</ele>
        <time>2018-09-06T04:39:31.000Z</time>
      </trkpt>
      <trkpt lat="41.26046" lon="73.59902">
        <ele>2153.8</ele>
        <time>2018-09-06T04:41:54.000Z</time>
      </trkpt>
      <trkpt lat="41.26003" lon="73.60073">
        <ele>2173.7</ele>
        <time>2018-09-06T04:43:25.000Z</time>
      </trkpt>
      <trkpt lat="41.25998" lon="73.60253">
        <ele>2169.5</ele>
        <time>2018-09-06T04:45:23.000Z</time>
      </trkpt>
      <trkpt lat="41.26005" lon="73.60433">
        <ele>2144</ele>
        <time>2018-09-06T04:54:44.000Z</time>
      </trkpt>
      <trkpt lat="41.25977" lon="73.60611">
        <ele>2145.1</ele>
        <time>2018-09-06T04:55:48.000Z</time>
      </trkpt>
      <trkpt lat="41.25918" lon="73.60773">
        <ele>2165.3</ele>
        <time>2018-09-06T04:57:21.000Z</time>
      </trkpt>
      <trkpt lat="41.25865" lon="73.6094">
        <ele>2168.3</ele>
        <time>2018-09-06T04:59:07.000Z</time>
      </trkpt>
      <trkpt lat="41.2596" lon="73.60812">
        <ele>2177.4</ele>
        <time>2018-09-06T05:03:57.000Z</time>
      </trkpt>
      <trkpt lat="41.26112" lon="73.60377">
        <ele>2173.4</ele>
        <time>2018-09-06T05:08:08.000Z</time>
      </trkpt>
      <trkpt lat="41.26105" lon="73.60197">
        <ele>2243.4</ele>
        <time>2018-09-06T05:09:49.000Z</time>
      </trkpt>
      <trkpt lat="41.26153" lon="73.60028">
        <ele>2196.4</ele>
        <time>2018-09-06T05:10:51.000Z</time>
      </trkpt>
      <trkpt lat="41.26289" lon="73.60028">
        <ele>2212.5</ele>
        <time>2018-09-06T05:13:38.000Z</time>
      </trkpt>
      <trkpt lat="41.2636" lon="73.60182">
        <ele>2193.9</ele>
        <time>2018-09-06T05:15:58.000Z</time>
      </trkpt>
      <trkpt lat="41.2644" lon="73.60329">
        <ele>2168.5</ele>
        <time>2018-09-06T05:18:15.000Z</time>
      </trkpt>
      <trkpt lat="41.26516" lon="73.60477">
        <ele>2157.7</ele>
        <time>2018-09-06T05:20:22.000Z</time>
      </trkpt>
      <trkpt lat="41.26585" lon="73.60633">
        <ele>2159.9</ele>
        <time>2018-09-06T05:22:25.000Z</time>
      </trkpt>
      <trkpt lat="41.26611" lon="73.60809">
        <ele>2166.7</ele>
        <time>2018-09-06T05:24:26.000Z</time>
      </trkpt>
      <trkpt lat="41.26693" lon="73.60951">
        <ele>2168.9</ele>
        <time>2018-09-06T05:26:36.000Z</time>
      </trkpt>
      <trkpt lat="41.26888" lon="73.61376">
        <ele>2170.3</ele>
        <time>2018-09-06T05:40:18.000Z</time>
      </trkpt>
      <trkpt lat="41.26802" lon="73.61515">
        <ele>2234.8</ele>
        <time>2018-09-06T05:43:35.000Z</time>
      </trkpt>
      <trkpt lat="41.26665" lon="73.61518">
        <ele>2307</ele>
        <time>2018-09-06T05:45:41.000Z</time>
      </trkpt>
      <trkpt lat="41.26602" lon="73.61357">
        <ele>2350.3</ele>
        <time>2018-09-06T05:47:33.000Z</time>
      </trkpt>
      <trkpt lat="41.26512" lon="73.61221">
        <ele>2372.4</ele>
        <time>2018-09-06T05:48:59.000Z</time>
      </trkpt>
      <trkpt lat="41.2639" lon="73.61144">
        <ele>2380.8</ele>
        <time>2018-09-06T05:50:41.000Z</time>
      </trkpt>
      <trkpt lat="41.26272" lon="73.61054">
        <ele>2381.8</ele>
        <time>2018-09-06T05:52:13.000Z</time>
      </trkpt>
      <trkpt lat="41.2622" lon="73.6122">
        <ele>2391.6</ele>
        <time>2018-09-06T05:53:33.000Z</time>
      </trkpt>
      <trkpt lat="41.26165" lon="73.61384">
        <ele>2403.8</ele>
        <time>2018-09-06T05:55:27.000Z</time>
      </trkpt>
      <trkpt lat="41.26173" lon="73.61564">
        <ele>2411.2</ele>
        <time>2018-09-06T05:57:37.000Z</time>
      </trkpt>
      <trkpt lat="41.26206" lon="73.61738">
        <ele>2442.3</ele>
        <time>2018-09-06T05:59:44.000Z</time>
      </trkpt>
      <trkpt lat="41.26223" lon="73.61918">
        <ele>2455.8</ele>
        <time>2018-09-06T06:01:39.000Z</time>
      </trkpt>
      <trkpt lat="41.26236" lon="73.62099">
        <ele>2463.7</ele>
        <time>2018-09-06T06:03:27.000Z</time>
      </trkpt>
      <trkpt lat="41.26234" lon="73.6228">
        <ele>2464.2</ele>
        <time>2018-09-06T06:05:08.000Z</time>
      </trkpt>
      <trkpt lat="41.26273" lon="73.62452">
        <ele>2463.7</ele>
        <time>2018-09-06T06:06:41.000Z</time>
      </trkpt>
      <trkpt lat="41.2637" lon="73.62578">
        <ele>2472.7</ele>
        <time>2018-09-06T06:08:04.000Z</time>
      </trkpt>
      <trkpt lat="41.26464" lon="73.62709">
        <ele>2462.6</ele>
        <time>2018-09-06T06:19:44.000Z</time>
      </trkpt>
      <trkpt lat="41.26485" lon="73.62886">
        <ele>2470.9</ele>
        <time>2018-09-06T06:21:49.000Z</time>
      </trkpt>
      <trkpt lat="41.26574" lon="73.63021">
        <ele>2480.3</ele>
        <time>2018-09-06T06:23:50.000Z</time>
      </trkpt>
      <trkpt lat="41.26653" lon="73.63168">
        <ele>2501.8</ele>
        <time>2018-09-06T06:25:46.000Z</time>
      </trkpt>
      <trkpt lat="41.26676" lon="73.63346">
        <ele>2514.5</ele>
        <time>2018-09-06T06:27:37.000Z</time>
      </trkpt>
      <trkpt lat="41.26711" lon="73.63172">
        <ele>2535.5</ele>
        <time>2018-09-06T06:32:13.000Z</time>
      </trkpt>
      <trkpt lat="41.26657" lon="73.63008">
        <ele>2549.1</ele>
        <time>2018-09-06T06:34:01.000Z</time>
      </trkpt>
      <trkpt lat="41.26584" lon="73.62856">
        <ele>2552.5</ele>
        <time>2018-09-06T06:35:56.000Z</time>
      </trkpt>
      <trkpt lat="41.26586" lon="73.62676">
        <ele>2555.2</ele>
        <time>2018-09-06T06:37:24.000Z</time>
      </trkpt>
      <trkpt lat="41.26529" lon="73.62512">
        <ele>2570.1</ele>
        <time>2018-09-06T06:39:31.000Z</time>
      </trkpt>
      <trkpt lat="41.26452" lon="73.62364">
        <ele>2582.6</ele>
        <time>2018-09-06T06:41:41.000Z</time>
      </trkpt>
      <trkpt lat="41.26476" lon="73.62186">
        <ele>2584.7</ele>
        <time>2018-09-06T06:43:35.000Z</time>
      </trkpt>
      <trkpt lat="41.26533" lon="73.62023">
        <ele>2601.7</ele>
        <time>2018-09-06T06:46:08.000Z</time>
      </trkpt>
      <trkpt lat="41.26636" lon="73.6214">
        <ele>2619.8</ele>
        <time>2018-09-06T06:48:37.000Z</time>
      </trkpt>
      <trkpt lat="41.26687" lon="73.62309">
        <ele>2642.5</ele>
        <time>2018-09-06T06:50:07.000Z</time>
      </trkpt>
      <trkpt lat="41.26746" lon="73.62471">
        <ele>2665.5</ele>
        <time>2018-09-06T06:51:57.000Z</time>
      </trkpt>
      <trkpt lat="41.26867" lon="73.62551">
        <ele>2681.6</ele>
        <time>2018-09-06T06:54:28.000Z</time>
      </trkpt>
      <trkpt lat="41.26982" lon="73.62645">
        <ele>2665.3</ele>
        <time>2018-09-06T06:56:45.000Z</time>
      </trkpt>
      <trkpt lat="41.27083" lon="73.62764">
        <ele>2686.6</ele>
        <time>2018-09-06T06:58:41.000Z</time>
      </trkpt>
      <trkpt lat="41.27172" lon="73.629">
        <ele>2699.3</ele>
        <time>2018-09-06T07:00:54.000Z</time>
      </trkpt>
      <trkpt lat="41.27048" lon="73.62827">
        <ele>2709.2</ele>
        <time>2018-09-06T07:04:04.000Z</time>
      </trkpt>
      <trkpt lat="41.26932" lon="73.62735">
        <ele>2687.8</ele>
        <time>2018-09-06T07:05:19.000Z</time>
      </trkpt>
      <trkpt lat="41.26959" lon="73.62911">
        <ele>2680.8</ele>
        <time>2018-09-06T07:07:56.000Z</time>
      </trkpt>
      <trkpt lat="41.26978" lon="73.63089">
        <ele>2711.4</ele>
        <time>2018-09-06T07:09:59.000Z</time>
      </trkpt>
      <trkpt lat="41.27001" lon="73.63268">
        <ele>2758</ele>
        <time>2018-09-06T07:12:02.000Z</time>
      </trkpt>
      <trkpt lat="41.26956" lon="73.63438">
        <ele>2796.3</ele>
        <time>2018-09-06T07:13:59.000Z</time>
      </trkpt>
      <trkpt lat="41.26976" lon="73.63616">
        <ele>2802.7</ele>
        <time>2018-09-06T07:18:13.000Z</time>
      </trkpt>
      <trkpt lat="41.26975" lon="73.63796">
        <ele>2798.7</ele>
        <time>2018-09-06T07:19:52.000Z</time>
      </trkpt>
      <trkpt lat="41.26996" lon="73.63975">
        <ele>2806.3</ele>
        <time>2018-09-06T07:21:41.000Z</time>
      </trkpt>
      <trkpt lat="41.27021" lon="73.63798">
        <ele>2837.7</ele>
        <time>2018-09-06T07:25:41.000Z</time>
      </trkpt>
      <trkpt lat="41.27041" lon="73.63618">
        <ele>2843.2</ele>
        <time>2018-09-06T07:27:22.000Z</time>
      </trkpt>
      <trkpt lat="41.27053" lon="73.63436">
        <ele>2845.5</ele>
        <time>2018-09-06T07:28:28.000Z</time>
      </trkpt>
      <trkpt lat="41.27165" lon="73.63333">
        <ele>2848.1</ele>
        <time>2018-09-06T07:30:05.000Z</time>
      </trkpt>
      <trkpt lat="41.27296" lon="73.63379">
        <ele>2843.5</ele>
        <time>2018-09-06T07:31:31.000Z</time>
      </trkpt>
      <trkpt lat="41.27369" lon="73.63531">
        <ele>2849.2</ele>
        <time>2018-09-06T07:33:30.000Z</time>
      </trkpt>
      <trkpt lat="41.27468" lon="73.63653">
        <ele>2866.7</ele>
        <time>2018-09-06T07:35:23.000Z</time>
      </trkpt>
      <trkpt lat="41.27562" lon="73.63784">
        <ele>2885.6</ele>
        <time>2018-09-06T07:37:29.000Z</time>
      </trkpt>
      <trkpt lat="41.27696" lon="73.63802">
        <ele>2896.1</ele>
        <time>2018-09-06T07:39:20.000Z</time>
      </trkpt>
      <trkpt lat="41.278" lon="73.63685">
        <ele>2888.2</ele>
        <time>2018-09-06T07:40:42.000Z</time>
      </trkpt>
      <trkpt lat="41.27938" lon="73.6369">
        <ele>2888</ele>
        <time>2018-09-06T07:42:46.000Z</time>
      </trkpt>
      <trkpt lat="41.28074" lon="73.63674">
        <ele>2885.8</ele>
        <time>2018-09-06T07:44:11.000Z</time>
      </trkpt>
      <trkpt lat="41.2821" lon="73.63684">
        <ele>2886.3</ele>
        <time>2018-09-06T07:45:25.000Z</time>
      </trkpt>
      <trkpt lat="41.28344" lon="73.6359">
        <ele>2893.4</ele>
        <time>2018-09-06T07:46:25.000Z</time>
      </trkpt>
      <trkpt lat="41.28439" lon="73.63462">
        <ele>2907.9</ele>
        <time>2018-09-06T07:47:48.000Z</time>
      </trkpt>
      <trkpt lat="41.28568" lon="73.63403">
        <ele>2919.4</ele>
        <time>2018-09-06T07:49:35.000Z</time>
      </trkpt>
      <trkpt lat="41.28669" lon="73.63282">
        <ele>2919.1</ele>
        <time>2018-09-06T07:50:45.000Z</time>
      </trkpt>
      <trkpt lat="41.28777" lon="73.63136">
        <ele>2920.6</ele>
        <time>2018-09-06T07:52:24.000Z</time>
      </trkpt>
      <trkpt lat="41.28787" lon="73.62956">
        <ele>2983.3</ele>
        <time>2018-09-06T07:57:13.000Z</time>
      </trkpt>
      <trkpt lat="41.28856" lon="73.628">
        <ele>2979.9</ele>
        <time>2018-09-06T07:58:17.000Z</time>
      </trkpt>
      <trkpt lat="41.28991" lon="73.62783">
        <ele>2985.8</ele>
        <time>2018-09-06T08:35:11.000Z</time>
      </trkpt>
      <trkpt lat="41.29196" lon="73.62731">
        <ele>2986</ele>
        <time>2018-09-06T08:36:12.000Z</time>
      </trkpt>
      <trkpt lat="41.29461" lon="73.62795">
        <ele>2985.9</ele>
        <time>2018-09-06T08:37:18.000Z</time>
      </trkpt>
      <trkpt lat="41.29376" lon="73.63304">
        <ele>2986.5</ele>
        <time>2018-09-06T08:39:01.000Z</time>
      </trkpt>
      <trkpt lat="41.31477" lon="73.65277">
        <ele>3212.2</ele>
        <time>2018-09-06T08:53:23.000Z</time>
      </trkpt>
      <trkpt lat="41.31036" lon="73.64903">
        <ele>2673.8</ele>
        <time>2018-09-06T08:54:24.000Z</time>
      </trkpt>
      <trkpt lat="41.31122" lon="73.64737">
        <ele>2666.7</ele>
        <time>2018-09-06T08:55:25.000Z</time>
      </trkpt>
      <trkpt lat="41.31178" lon="73.65028">
        <ele>2645.4</ele>
        <time>2018-09-06T08:56:26.000Z</time>
      </trkpt>
      <trkpt lat="41.31312" lon="73.65187">
        <ele>2634.7</ele>
        <time>2018-09-06T08:57:27.000Z</time>
      </trkpt>
      <trkpt lat="41.31262" lon="73.65359">
        <ele>2628.1</ele>
        <time>2018-09-06T09:16:46.000Z</time>
      </trkpt>
      <trkpt lat="41.30969" lon="73.65545">
        <ele>2601.6</ele>
        <time>2018-09-06T09:17:47.000Z</time>
      </trkpt>
      <trkpt lat="41.30855" lon="73.65974">
        <ele>2570.4</ele>
        <time>2018-09-06T09:18:48.000Z</time>
      </trkpt>
      <trkpt lat="41.31023" lon="73.66318">
        <ele>2542.3</ele>
        <time>2018-09-06T09:19:49.000Z</time>
      </trkpt>
      <trkpt lat="41.30781" lon="73.66287">
        <ele>2519.9</ele>
        <time>2018-09-06T09:20:50.000Z</time>
      </trkpt>
      <trkpt lat="41.30871" lon="73.6645">
        <ele>2496.2</ele>
        <time>2018-09-06T09:21:51.000Z</time>
      </trkpt>
      <trkpt lat="41.31023" lon="73.66545">
        <ele>2484.1</ele>
        <time>2018-09-06T09:22:51.000Z</time>
      </trkpt>
      <trkpt lat="41.31237" lon="73.6679">
        <ele>2463.9</ele>
        <time>2018-09-06T09:23:52.000Z</time>
      </trkpt>
      <trkpt lat="41.31004" lon="73.66643">
        <ele>2448.6</ele>
        <time>2018-09-06T09:24:53.000Z</time>
      </trkpt>
      <trkpt lat="41.30739" lon="73.66494">
        <ele>2433.4</ele>
        <time>2018-09-06T09:25:54.000Z</time>
      </trkpt>
      <trkpt lat="41.30437" lon="73.66397">
        <ele>2407.4</ele>
        <time>2018-09-06T09:26:55.000Z</time>
      </trkpt>
      <trkpt lat="41.30239" lon="73.66246">
        <ele>2386.5</ele>
        <time>2018-09-06T09:27:56.000Z</time>
      </trkpt>
      <trkpt lat="41.30082" lon="73.66146">
        <ele>2388.8</ele>
        <time>2018-09-06T09:28:57.000Z</time>
      </trkpt>
      <trkpt lat="41.30213" lon="73.66286">
        <ele>2365.3</ele>
        <time>2018-09-06T09:29:58.000Z</time>
      </trkpt>
      <trkpt lat="41.30335" lon="73.66513">
        <ele>2341.2</ele>
        <time>2018-09-06T09:30:58.000Z</time>
      </trkpt>
      <trkpt lat="41.30307" lon="73.6669">
        <ele>2301.9</ele>
        <time>2018-09-06T09:34:50.000Z</time>
      </trkpt>
      <trkpt lat="41.30556" lon="73.66808">
        <ele>2286</ele>
        <time>2018-09-06T09:35:51.000Z</time>
      </trkpt>
      <trkpt lat="41.30692" lon="73.6699">
        <ele>2278.1</ele>
        <time>2018-09-06T09:36:52.000Z</time>
      </trkpt>
      <trkpt lat="41.30831" lon="73.66926">
        <ele>2267.2</ele>
        <time>2018-09-06T09:37:53.000Z</time>
      </trkpt>
      <trkpt lat="41.30947" lon="73.6708">
        <ele>2260.9</ele>
        <time>2018-09-06T09:38:54.000Z</time>
      </trkpt>
      <trkpt lat="41.3106" lon="73.67179">
        <ele>2248.5</ele>
        <time>2018-09-06T09:40:14.000Z</time>
      </trkpt>
      <trkpt lat="41.31256" lon="73.67351">
        <ele>2222.1</ele>
        <time>2018-09-06T09:41:15.000Z</time>
      </trkpt>
      <trkpt lat="41.3153" lon="73.67463">
        <ele>2190.5</ele>
        <time>2018-09-06T09:42:16.000Z</time>
      </trkpt>
      <trkpt lat="41.31807" lon="73.67824">
        <ele>2150.1</ele>
        <time>2018-09-06T09:43:17.000Z</time>
      </trkpt>
      <trkpt lat="41.3204" lon="73.67815">
        <ele>2112.2</ele>
        <time>2018-09-06T09:44:18.000Z</time>
      </trkpt>
      <trkpt lat="41.32012" lon="73.67426">
        <ele>2097.8</ele>
        <time>2018-09-06T09:45:19.000Z</time>
      </trkpt>
      <trkpt lat="41.31822" lon="73.67149">
        <ele>2076.4</ele>
        <time>2018-09-06T09:46:19.000Z</time>
      </trkpt>
      <trkpt lat="41.31953" lon="73.67097">
        <ele>2071.4</ele>
        <time>2018-09-06T09:52:59.000Z</time>
      </trkpt>
      <trkpt lat="41.32121" lon="73.66789">
        <ele>2061.6</ele>
        <time>2018-09-06T09:54:00.000Z</time>
      </trkpt>
      <trkpt lat="41.32033" lon="73.66479">
        <ele>2048.2</ele>
        <time>2018-09-06T09:55:01.000Z</time>
      </trkpt>
      <trkpt lat="41.32129" lon="73.66349">
        <ele>2054.9</ele>
        <time>2018-09-06T09:59:06.000Z</time>
      </trkpt>
      <trkpt lat="41.32276" lon="73.66374">
        <ele>2042</ele>
        <time>2018-09-06T10:00:07.000Z</time>
      </trkpt>
      <trkpt lat="41.32482" lon="73.6636">
        <ele>2011.2</ele>
        <time>2018-09-06T10:01:08.000Z</time>
      </trkpt>
      <trkpt lat="41.3254" lon="73.66039">
        <ele>1984.9</ele>
        <time>2018-09-06T10:02:09.000Z</time>
      </trkpt>
      <trkpt lat="41.32768" lon="73.66043">
        <ele>1968.2</ele>
        <time>2018-09-06T10:03:10.000Z</time>
      </trkpt>
      <trkpt lat="41.32897" lon="73.65806">
        <ele>1969.9</ele>
        <time>2018-09-06T10:04:11.000Z</time>
      </trkpt>
      <trkpt lat="41.33022" lon="73.65628">
        <ele>1984.8</ele>
        <time>2018-09-06T10:05:12.000Z</time>
      </trkpt>
      <trkpt lat="41.33183" lon="73.65514">
        <ele>1993.2</ele>
        <time>2018-09-06T10:06:13.000Z</time>
      </trkpt>
      <trkpt lat="41.33311" lon="73.65454">
        <ele>1992.1</ele>
        <time>2018-09-06T10:07:19.000Z</time>
      </trkpt>
      <trkpt lat="41.33419" lon="73.65343">
        <ele>1991.1</ele>
        <time>2018-09-06T10:10:08.000Z</time>
      </trkpt>
      <trkpt lat="41.33536" lon="73.65231">
        <ele>2002.1</ele>
        <time>2018-09-06T10:11:09.000Z</time>
      </trkpt>
      <trkpt lat="41.33668" lon="73.65117">
        <ele>2004.9</ele>
        <time>2018-09-06T10:12:09.000Z</time>
      </trkpt>
      <trkpt lat="41.33763" lon="73.64986">
        <ele>2005.4</ele>
        <time>2018-09-06T10:14:53.000Z</time>
      </trkpt>
      <trkpt lat="41.33794" lon="73.6481">
        <ele>2008.5</ele>
        <time>2018-09-06T10:18:23.000Z</time>
      </trkpt>
      <trkpt lat="41.3387" lon="73.64959">
        <ele>2028.6</ele>
        <time>2018-09-06T10:21:31.000Z</time>
      </trkpt>
      <trkpt lat="41.33917" lon="73.65129">
        <ele>2045.1</ele>
        <time>2018-09-06T10:24:09.000Z</time>
      </trkpt>
      <trkpt lat="41.34023" lon="73.65244">
        <ele>2055.3</ele>
        <time>2018-09-06T10:25:40.000Z</time>
      </trkpt>
      <trkpt lat="41.34046" lon="73.65421">
        <ele>2076.4</ele>
        <time>2018-09-06T10:27:50.000Z</time>
      </trkpt>
      <trkpt lat="41.34099" lon="73.65587">
        <ele>2081.8</ele>
        <time>2018-09-06T10:29:54.000Z</time>
      </trkpt>
      <trkpt lat="41.34191" lon="73.6572">
        <ele>2081.9</ele>
        <time>2018-09-06T10:31:29.000Z</time>
      </trkpt>
      <trkpt lat="41.34268" lon="73.65868">
        <ele>2094.5</ele>
        <time>2018-09-06T10:32:56.000Z</time>
      </trkpt>
      <trkpt lat="41.34363" lon="73.65998">
        <ele>2106</ele>
        <time>2018-09-06T10:34:07.000Z</time>
      </trkpt>
      <trkpt lat="41.34445" lon="73.66141">
        <ele>2113.9</ele>
        <time>2018-09-06T10:35:50.000Z</time>
      </trkpt>
      <trkpt lat="41.3448" lon="73.66318">
        <ele>2120.2</ele>
        <time>2018-09-06T10:36:54.000Z</time>
      </trkpt>
      <trkpt lat="41.34746" lon="73.6655">
        <ele>2110.6</ele>
        <time>2018-09-06T10:37:54.000Z</time>
      </trkpt>
      <trkpt lat="41.3497" lon="73.6689">
        <ele>2072.4</ele>
        <time>2018-09-06T10:38:55.000Z</time>
      </trkpt>
      <trkpt lat="41.3517" lon="73.67254">
        <ele>2046.3</ele>
        <time>2018-09-06T10:39:56.000Z</time>
      </trkpt>
      <trkpt lat="41.35324" lon="73.67695">
        <ele>2022.1</ele>
        <time>2018-09-06T10:40:57.000Z</time>
      </trkpt>
      <trkpt lat="41.35621" lon="73.6812">
        <ele>2003.1</ele>
        <time>2018-09-06T10:41:58.000Z</time>
      </trkpt>
      <trkpt lat="41.35898" lon="73.6855">
        <ele>1985.5</ele>
        <time>2018-09-06T10:42:59.000Z</time>
      </trkpt>
      <trkpt lat="41.36077" lon="73.68933">
        <ele>1973.9</ele>
        <time>2018-09-06T10:44:00.000Z</time>
      </trkpt>
      <trkpt lat="41.36282" lon="73.69396">
        <ele>1945.1</ele>
        <time>2018-09-06T10:45:01.000Z</time>
      </trkpt>
      <trkpt lat="41.36299" lon="73.69765">
        <ele>1943.8</ele>
        <time>2018-09-06T10:46:02.000Z</time>
      </trkpt>
      <trkpt lat="41.36318" lon="73.70017">
        <ele>1941.3</ele>
        <time>2018-09-06T10:47:03.000Z</time>
      </trkpt>
      <trkpt lat="41.3644" lon="73.70349">
        <ele>1921.2</ele>
        <time>2018-09-06T10:48:04.000Z</time>
      </trkpt>
      <trkpt lat="41.36476" lon="73.70733">
        <ele>1926.8</ele>
        <time>2018-09-06T10:49:05.000Z</time>
      </trkpt>
      <trkpt lat="41.36397" lon="73.71172">
        <ele>1934.6</ele>
        <time>2018-09-06T10:50:06.000Z</time>
      </trkpt>
      <trkpt lat="41.36301" lon="73.71468">
        <ele>1937.6</ele>
        <time>2018-09-06T10:51:07.000Z</time>
      </trkpt>
      <trkpt lat="41.36279" lon="73.71778">
        <ele>1918</ele>
        <time>2018-09-06T10:52:08.000Z</time>
      </trkpt>
      <trkpt lat="41.36176" lon="73.72067">
        <ele>1909.6</ele>
        <time>2018-09-06T10:53:09.000Z</time>
      </trkpt>
      <trkpt lat="41.36065" lon="73.72262">
        <ele>1908.9</ele>
        <time>2018-09-06T10:54:10.000Z</time>
      </trkpt>
      <trkpt lat="41.36169" lon="73.72377">
        <ele>1899.4</ele>
        <time>2018-09-06T10:55:22.000Z</time>
      </trkpt>
      <trkpt lat="41.36199" lon="73.72554">
        <ele>1895.1</ele>
        <time>2018-09-06T11:03:07.000Z</time>
      </trkpt>
      <trkpt lat="41.36251" lon="73.72866">
        <ele>1867.5</ele>
        <time>2018-09-06T11:04:08.000Z</time>
      </trkpt>
      <trkpt lat="41.36287" lon="73.73328">
        <ele>1856.6</ele>
        <time>2018-09-06T11:05:09.000Z</time>
      </trkpt>
      <trkpt lat="41.36315" lon="73.73699">
        <ele>1850.5</ele>
        <time>2018-09-06T11:06:10.000Z</time>
      </trkpt>
      <trkpt lat="41.36398" lon="73.7405">
        <ele>1837.6</ele>
        <time>2018-09-06T11:07:11.000Z</time>
      </trkpt>
      <trkpt lat="41.36474" lon="73.74478">
        <ele>1832.9</ele>
        <time>2018-09-06T11:08:12.000Z</time>
      </trkpt>
      <trkpt lat="41.36482" lon="73.74734">
        <ele>1827</ele>
        <time>2018-09-06T11:09:13.000Z</time>
      </trkpt>
      <trkpt lat="41.36486" lon="73.74913">
        <ele>1828.4</ele>
        <time>2018-09-06T11:10:30.000Z</time>
      </trkpt>
      <trkpt lat="41.3647" lon="73.75093">
        <ele>1841.3</ele>
        <time>2018-09-06T11:12:05.000Z</time>
      </trkpt>
      <trkpt lat="41.36357" lon="73.75193">
        <ele>1867.4</ele>
        <time>2018-09-06T11:14:09.000Z</time>
      </trkpt>
      <trkpt lat="41.3629" lon="73.7535">
        <ele>1874</ele>
        <time>2018-09-06T11:16:03.000Z</time>
      </trkpt>
      <trkpt lat="41.36171" lon="73.7545">
        <ele>1882.5</ele>
        <time>2018-09-06T11:18:15.000Z</time>
      </trkpt>
      <trkpt lat="41.36243" lon="73.75863">
        <ele>1846.3</ele>
        <time>2018-09-06T11:19:15.000Z</time>
      </trkpt>
      <trkpt lat="41.36088" lon="73.76006">
        <ele>1829.1</ele>
        <time>2018-09-06T11:20:16.000Z</time>
      </trkpt>
      <trkpt lat="41.35882" lon="73.76289">
        <ele>1801.5</ele>
        <time>2018-09-06T11:21:17.000Z</time>
      </trkpt>
      <trkpt lat="41.35732" lon="73.76455">
        <ele>1778.9</ele>
        <time>2018-09-06T11:22:17.000Z</time>
      </trkpt>
      <trkpt lat="41.35734" lon="73.76904">
        <ele>1753.3</ele>
        <time>2018-09-06T11:23:18.000Z</time>
      </trkpt>
      <trkpt lat="41.35767" lon="73.77303">
        <ele>1729.1</ele>
        <time>2018-09-06T11:24:19.000Z</time>
      </trkpt>
      <trkpt lat="41.35793" lon="73.77663">
        <ele>1727.4</ele>
        <time>2018-09-06T11:25:20.000Z</time>
      </trkpt>
      <trkpt lat="41.35778" lon="73.77845">
        <ele>1715.1</ele>
        <time>2018-09-06T11:26:32.000Z</time>
      </trkpt>
      <trkpt lat="41.35848" lon="73.7808">
        <ele>1695.9</ele>
        <time>2018-09-06T11:27:33.000Z</time>
      </trkpt>
      <trkpt lat="41.35773" lon="73.7823">
        <ele>1683.7</ele>
        <time>2018-09-06T11:29:54.000Z</time>
      </trkpt>
      <trkpt lat="41.35662" lon="73.78555">
        <ele>1663.3</ele>
        <time>2018-09-06T11:30:55.000Z</time>
      </trkpt>
      <trkpt lat="41.3579" lon="73.78695">
        <ele>1628.7</ele>
        <time>2018-09-06T11:31:56.000Z</time>
      </trkpt>
      <trkpt lat="41.35668" lon="73.79058">
        <ele>1600.8</ele>
        <time>2018-09-06T11:32:56.000Z</time>
      </trkpt>
      <trkpt lat="41.35671" lon="73.79374">
        <ele>1565</ele>
        <time>2018-09-06T11:33:58.000Z</time>
      </trkpt>
      <trkpt lat="41.35842" lon="73.7963">
        <ele>1537.3</ele>
        <time>2018-09-06T11:34:58.000Z</time>
      </trkpt>
      <trkpt lat="41.35946" lon="73.79895">
        <ele>1525</ele>
        <time>2018-09-06T11:35:59.000Z</time>
      </trkpt>
      <trkpt lat="41.36054" lon="73.80139">
        <ele>1519.9</ele>
        <time>2018-09-06T11:36:59.000Z</time>
      </trkpt>
      <trkpt lat="41.36155" lon="73.80338">
        <ele>1520</ele>
        <time>2018-09-06T11:38:00.000Z</time>
      </trkpt>
      <trkpt lat="41.36299" lon="73.80557">
        <ele>1523</ele>
        <time>2018-09-06T11:39:01.000Z</time>
      </trkpt>
      <trkpt lat="41.36461" lon="73.80773">
        <ele>1521.5</ele>
        <time>2018-09-06T11:40:03.000Z</time>
      </trkpt>
      <trkpt lat="41.36611" lon="73.80936">
        <ele>1520.8</ele>
        <time>2018-09-06T11:41:03.000Z</time>
      </trkpt>
      <trkpt lat="41.36651" lon="73.81108">
        <ele>1522.4</ele>
        <time>2018-09-06T11:44:20.000Z</time>
      </trkpt>
      <trkpt lat="41.36654" lon="73.81301">
        <ele>1525.6</ele>
        <time>2018-09-06T11:45:21.000Z</time>
      </trkpt>
      <trkpt lat="41.36641" lon="73.81481">
        <ele>1533.3</ele>
        <time>2018-09-06T11:46:32.000Z</time>
      </trkpt>
      <trkpt lat="41.36573" lon="73.81638">
        <ele>1546.2</ele>
        <time>2018-09-06T11:47:52.000Z</time>
      </trkpt>
      <trkpt lat="41.36488" lon="73.81779">
        <ele>1557.1</ele>
        <time>2018-09-06T11:49:11.000Z</time>
      </trkpt>
      <trkpt lat="41.36402" lon="73.81921">
        <ele>1570.4</ele>
        <time>2018-09-06T11:50:31.000Z</time>
      </trkpt>
      <trkpt lat="41.36339" lon="73.82082">
        <ele>1576.7</ele>
        <time>2018-09-06T11:51:47.000Z</time>
      </trkpt>
      <trkpt lat="41.36265" lon="73.82233">
        <ele>1594.7</ele>
        <time>2018-09-06T11:53:23.000Z</time>
      </trkpt>
      <trkpt lat="41.36208" lon="73.82398">
        <ele>1612.8</ele>
        <time>2018-09-06T11:55:00.000Z</time>
      </trkpt>
      <trkpt lat="41.36131" lon="73.82545">
        <ele>1629.1</ele>
        <time>2018-09-06T11:56:31.000Z</time>
      </trkpt>
      <trkpt lat="41.36084" lon="73.82716">
        <ele>1618.2</ele>
        <time>2018-09-06T11:58:04.000Z</time>
      </trkpt>
      <trkpt lat="41.36097" lon="73.82895">
        <ele>1621.7</ele>
        <time>2018-09-06T11:59:48.000Z</time>
      </trkpt>
      <trkpt lat="41.3614" lon="73.8307">
        <ele>1623.9</ele>
        <time>2018-09-06T12:00:52.000Z</time>
      </trkpt>
      <trkpt lat="41.36229" lon="73.8352">
        <ele>1599.7</ele>
        <time>2018-09-06T12:01:53.000Z</time>
      </trkpt>
      <trkpt lat="41.36379" lon="73.83965">
        <ele>1566.5</ele>
        <time>2018-09-06T12:02:54.000Z</time>
      </trkpt>
      <trkpt lat="41.36567" lon="73.84336">
        <ele>1537.3</ele>
        <time>2018-09-06T12:03:55.000Z</time>
      </trkpt>
      <trkpt lat="41.36664" lon="73.84695">
        <ele>1522.1</ele>
        <time>2018-09-06T12:04:56.000Z</time>
      </trkpt>
      <trkpt lat="41.36751" lon="73.8502">
        <ele>1518.2</ele>
        <time>2018-09-06T12:05:57.000Z</time>
      </trkpt>
      <trkpt lat="41.36871" lon="73.85337">
        <ele>1511.6</ele>
        <time>2018-09-06T12:06:57.000Z</time>
      </trkpt>
      <trkpt lat="41.36979" lon="73.85777">
        <ele>1501.1</ele>
        <time>2018-09-06T12:07:58.000Z</time>
      </trkpt>
      <trkpt lat="41.37156" lon="73.86033">
        <ele>1489.5</ele>
        <time>2018-09-06T12:08:59.000Z</time>
      </trkpt>
      <trkpt lat="41.37334" lon="73.86319">
        <ele>1475.7</ele>
        <time>2018-09-06T12:09:59.000Z</time>
      </trkpt>
      <trkpt lat="41.37501" lon="73.86596">
        <ele>1468.1</ele>
        <time>2018-09-06T12:11:00.000Z</time>
      </trkpt>
      <trkpt lat="41.37768" lon="73.86914">
        <ele>1454.4</ele>
        <time>2018-09-06T12:12:00.000Z</time>
      </trkpt>
      <trkpt lat="41.38037" lon="73.87272">
        <ele>1438.3</ele>
        <time>2018-09-06T12:13:01.000Z</time>
      </trkpt>
      <trkpt lat="41.38343" lon="73.87542">
        <ele>1419.1</ele>
        <time>2018-09-06T12:14:02.000Z</time>
      </trkpt>
      <trkpt lat="41.38675" lon="73.87739">
        <ele>1403.9</ele>
        <time>2018-09-06T12:15:03.000Z</time>
      </trkpt>
      <trkpt lat="41.38971" lon="73.8788">
        <ele>1392.7</ele>
        <time>2018-09-06T12:16:03.000Z</time>
      </trkpt>
      <trkpt lat="41.39397" lon="73.87955">
        <ele>1379.6</ele>
        <time>2018-09-06T12:17:04.000Z</time>
      </trkpt>
      <trkpt lat="41.39503" lon="73.88191">
        <ele>1367.6</ele>
        <time>2018-09-06T12:18:05.000Z</time>
      </trkpt>
      <trkpt lat="41.39581" lon="73.88341">
        <ele>1366</ele>
        <time>2018-09-06T12:19:32.000Z</time>
      </trkpt>
      <trkpt lat="41.39574" lon="73.88522">
        <ele>1370.6</ele>
        <time>2018-09-06T12:35:40.000Z</time>
      </trkpt>
      <trkpt lat="41.39574" lon="73.88797">
        <ele>1365.2</ele>
        <time>2018-09-06T12:36:41.000Z</time>
      </trkpt>
      <trkpt lat="41.39561" lon="73.88977">
        <ele>1361.6</ele>
        <time>2018-09-06T12:45:16.000Z</time>
      </trkpt>
      <trkpt lat="41.39562" lon="73.89221">
        <ele>1364.8</ele>
        <time>2018-09-06T12:46:17.000Z</time>
      </trkpt>
      <trkpt lat="41.397" lon="73.89229">
        <ele>1367.2</ele>
        <time>2018-09-06T12:48:21.000Z</time>
      </trkpt>
      <trkpt lat="41.39774" lon="73.8938">
        <ele>1365.5</ele>
        <time>2018-09-06T12:52:01.000Z</time>
      </trkpt>
    </trkseg>
  </trk>
</gpx>